< < Back
Terminal Aerodrome Forecast


Current Version              Previous Versions:   1  2  3  4  5  6  7  8  9  

Terminal Aerodrome Forecast

709
FTUS42 KGSP 241740
TAFHKY
TAF
KHKY 241740Z 2418/2518 26006KT P6SM VCTS BKN060CB
     FM242000 26006KT P6SM BKN060
      TEMPO 2420/2424 VRB10G20KT 4SM TSRA OVC030CB
     FM250100 30004KT P6SM SCT070 BKN250
     FM250300 33004KT P6SM BKN250
     FM250800 02004KT P6SM SCT050 BKN250=



Latest METAR

292
SAUS70 KWBC 242300 RRE
MTRHKY
METAR KHKY 242253Z 35003KT 10SM FEW065 BKN090 31/18 A3000 RMK AO2 SLP134
T03060178


USA.gov is the U.S. government's official web portal to all federal, state and local government web resources and services.